Time;durP1;ratioP1;P1;durP2;ratioP2;P2;SDS_P1;SDS_P2;PMS_P1;PMS_P2;Temp;Humidity;BMP_temperature;BMP_pressure;BME280_temperature;BME280_humidity;BME280_pressure;Samples;Min_cycle;Max_cycle;Signal;HPM_P1;HPM_P2
2022/04/15 00:04:39;;;;;;;0.00;0.00;;;;;;;-145.06;100.00;63404.56;10370637;28;20485;-65
2022/04/15 00:09:40;;;;;;;0.00;0.00;;;;;;;-145.06;100.00;63404.56;10369889;28;20747;-65
2022/04/15 00:14:40;;;;;;;0.00;0.00;;;;;;;-145.06;100.00;63404.56;10369883;28;20559;-65
2022/04/15 00:19:41;;;;;;;0.00;0.00;;;;;;;-145.06;100.00;63404.56;10363226;28;20431;-65
2022/04/15 00:24:42;;;;;;;0.08;0.08;;;;;;;-145.06;100.00;63404.56;10377819;28;20025;-64
2022/04/15 00:29:42;;;;;;;0.00;0.00;;;;;;;-145.06;100.00;63404.56;10382255;28;20021;-65
2022/04/15 00:34:42;;;;;;;0.10;0.10;;;;;;;-145.06;100.00;63404.56;10380314;28;20029;-65
2022/04/15 00:39:45;;;;;;;0.00;0.00;;;;;;;-145.06;100.00;63404.56;10381078;28;20049;-64
2022/04/15 00:44:47;;;;;;;0.00;0.00;;;;;;;-145.06;100.00;63404.56;10368764;28;20474;-65
2022/04/15 00:49:47;;;;;;;0.08;0.08;;;;;;;-145.06;100.00;63404.56;10377228;28;20075;-65
2022/04/15 00:54:51;;;;;;;0.00;0.00;;;;;;;-145.06;100.00;63404.56;10378629;28;20113;-64
2022/04/15 00:59:54;;;;;;;0.00;0.00;;;;;;;-145.06;100.00;63404.56;10391323;28;20025;-65
2022/04/15 01:04:56;;;;;;;0.00;0.00;;;;;;;-145.06;100.00;63404.56;10395701;28;20100;-65
2022/04/15 01:09:56;;;;;;;0.10;0.10;;;;;;;-145.06;100.00;63404.56;10387183;28;20053;-65
2022/04/15 01:15:02;;;;;;;0.00;0.00;;;;;;;-145.06;100.00;63404.56;10389991;28;20018;-64
2022/04/15 01:20:05;;;;;;;0.00;0.00;;;;;;;-145.06;100.00;63404.56;10393316;28;20370;-65
2022/04/15 01:25:07;;;;;;;0.00;0.00;;;;;;;-145.06;100.00;63404.56;10411499;28;20026;-64
2022/04/15 01:30:13;;;;;;;0.00;0.00;;;;;;;-145.06;100.00;63404.56;10404492;28;20017;-65
2022/04/15 01:35:15;;;;;;;0.00;0.00;;;;;;;-145.06;100.00;63404.56;10377549;28;20029;-65
2022/04/15 01:40:18;;;;;;;0.00;0.00;;;;;;;-145.06;100.00;63404.56;10376026;28;20030;-65
2022/04/15 01:45:18;;;;;;;0.00;0.00;;;;;;;-145.06;100.00;63404.56;10376170;28;20022;-65
2022/04/15 01:50:18;;;;;;;0.00;0.00;;;;;;;-145.06;100.00;63404.56;10375794;28;20389;-65
2022/04/15 01:55:18;;;;;;;0.00;0.00;;;;;;;-145.06;100.00;63404.56;10373666;28;20026;-65
2022/04/15 02:00:19;;;;;;;0.08;0.08;;;;;;;-145.06;100.00;63404.56;10402318;28;20022;-65
2022/04/15 02:05:19;;;;;;;0.00;0.00;;;;;;;-145.06;100.00;63404.56;10375125;28;20121;-65
2022/04/15 02:10:19;;;;;;;0.00;0.00;;;;;;;-145.06;100.00;63404.56;10399041;28;20264;-65
2022/04/15 02:15:20;;;;;;;0.00;0.00;;;;;;;-145.06;100.00;63404.56;10357204;28;20021;-65
2022/04/15 02:20:20;;;;;;;0.00;0.00;;;;;;;-145.06;100.00;63404.56;10374243;28;20025;-65
2022/04/15 02:25:20;;;;;;;0.00;0.00;;;;;;;-145.06;100.00;63404.56;10389284;28;20028;-65
2022/04/15 02:30:21;;;;;;;0.00;0.00;;;;;;;-145.06;100.00;63404.56;10388846;28;20044;-65
2022/04/15 02:35:21;;;;;;;0.00;0.00;;;;;;;-145.06;100.00;63404.56;10372545;28;20075;-65
2022/04/15 02:40:22;;;;;;;0.00;0.00;;;;;;;-145.06;100.00;63404.56;10373569;28;20363;-64
2022/04/15 02:45:22;;;;;;;0.00;0.00;;;;;;;-145.06;100.00;63404.56;10373370;28;20469;-64
2022/04/15 02:50:23;;;;;;;0.00;0.00;;;;;;;-145.06;100.00;63404.56;10359804;28;20021;-64
2022/04/15 02:55:23;;;;;;;0.10;0.10;;;;;;;-145.06;100.00;63404.56;10372708;28;20022;-65
2022/04/15 03:00:24;;;;;;;0.08;0.08;;;;;;;-145.06;100.00;63404.56;10396157;28;20055;-64
2022/04/15 03:05:24;;;;;;;0.00;0.00;;;;;;;-145.06;100.00;63404.56;10402829;28;20056;-65
2022/04/15 03:10:25;;;;;;;0.10;0.10;;;;;;;-145.06;100.00;63404.56;10394266;28;20056;-64
2022/04/15 03:15:25;;;;;;;0.00;0.00;;;;;;;-145.06;100.00;63404.56;10389045;28;20755;-65
2022/04/15 03:20:25;;;;;;;0.00;0.00;;;;;;;-145.06;100.00;63404.56;10398485;28;20419;-65
2022/04/15 03:25:26;;;;;;;0.00;0.00;;;;;;;-145.06;100.00;63404.56;10396884;28;20403;-64
2022/04/15 03:30:27;;;;;;;0.10;0.10;;;;;;;-145.06;100.00;63404.56;10401519;28;20041;-64
2022/04/15 03:35:27;;;;;;;0.00;0.00;;;;;;;-145.06;100.00;63404.56;10367442;28;20021;-63
2022/04/15 03:40:27;;;;;;;0.00;0.00;;;;;;;-145.06;100.00;63404.56;10388078;28;20064;-63
2022/04/15 03:45:28;;;;;;;0.00;0.00;;;;;;;-145.06;100.00;63404.56;10366971;28;20116;-64
2022/04/15 03:50:28;;;;;;;0.00;0.00;;;;;;;-145.06;100.00;63404.56;10366226;28;20265;-65
2022/04/15 03:55:29;;;;;;;0.00;0.00;;;;;;;-145.06;100.00;63404.56;10379312;28;20025;-64
2022/04/15 04:00:29;;;;;;;0.00;0.00;;;;;;;-145.06;100.00;63404.56;10386475;28;20072;-64
2022/04/15 04:05:29;;;;;;;0.00;0.00;;;;;;;-145.06;100.00;63404.56;10371317;28;20736;-64
2022/04/15 04:10:30;;;;;;;0.00;0.00;;;;;;;-145.06;100.00;63404.56;10389114;28;20265;-63
2022/04/15 04:15:31;;;;;;;0.00;0.00;;;;;;;-145.06;100.00;63404.56;10391599;28;20045;-64
2022/04/15 04:20:32;;;;;;;0.00;0.00;;;;;;;-145.06;100.00;63404.56;10378919;28;20069;-65
2022/04/15 04:25:32;;;;;;;0.00;0.00;;;;;;;-145.06;100.00;63404.56;10369625;28;20113;-64
2022/04/15 04:30:33;;;;;;;0.00;0.00;;;;;;;-145.06;100.00;63404.56;10369657;28;20484;-65
2022/04/15 04:35:33;;;;;;;0.00;0.00;;;;;;;-145.06;100.00;63404.56;10369416;28;20037;-64
2022/04/15 04:40:34;;;;;;;0.00;0.00;;;;;;;-145.06;100.00;63404.56;10368885;28;20101;-65
2022/04/15 04:45:35;;;;;;;0.00;0.00;;;;;;;-145.06;100.00;63404.56;10369130;28;20053;-65
2022/04/15 04:50:36;;;;;;;0.10;0.10;;;;;;;-145.06;100.00;63404.56;10376149;28;20445;-64
2022/04/15 04:55:36;;;;;;;0.00;0.00;;;;;;;-145.06;100.00;63404.56;10396155;28;20113;-65
2022/04/15 05:00:36;;;;;;;0.00;0.00;;;;;;;-145.06;100.00;63404.56;10400401;28;20287;-64
2022/04/15 05:05:37;;;;;;;0.00;0.00;;;;;;;-145.06;100.00;63404.56;10385998;28;20030;-63
2022/04/15 05:10:37;;;;;;;0.00;0.00;;;;;;;-145.06;100.00;63404.56;10386882;28;20030;-64
2022/04/15 05:15:37;;;;;;;0.00;0.00;;;;;;;-145.06;100.00;63404.56;10396950;28;20029;-64
2022/04/15 05:20:38;;;;;;;0.00;0.00;;;;;;;-145.06;100.00;63404.56;10387278;28;20856;-63
2022/04/15 05:25:38;;;;;;;0.25;0.25;;;;;;;-145.06;100.00;63404.56;10373834;28;20021;-64
2022/04/15 05:30:39;;;;;;;0.00;0.00;;;;;;;-145.06;100.00;63404.56;10381615;28;20041;-64
2022/04/15 05:35:39;;;;;;;0.00;0.00;;;;;;;-145.06;100.00;63404.56;10379498;28;20075;-64
2022/04/15 05:40:39;;;;;;;0.00;0.00;;;;;;;-145.06;100.00;63404.56;10367808;28;20029;-64
2022/04/15 05:45:39;;;;;;;0.00;0.00;;;;;;;-145.06;100.00;63404.56;10367937;28;20080;-64
2022/04/15 05:50:40;;;;;;;0.00;0.00;;;;;;;-145.06;100.00;63404.56;10374793;28;20033;-63
2022/04/15 05:55:40;;;;;;;0.00;0.00;;;;;;;-145.06;100.00;63404.56;10394171;28;20480;-64
2022/04/15 06:00:40;;;;;;;0.00;0.00;;;;;;;-145.06;100.00;63404.56;10397125;28;20685;-65
2022/04/15 06:05:41;;;;;;;0.00;0.00;;;;;;;-145.06;100.00;63404.56;10394946;28;20306;-64
2022/04/15 06:10:41;;;;;;;0.03;0.03;;;;;;;-145.06;100.00;63404.56;10477624;22;20428;-88
2022/04/15 06:15:51;;;;;;;0.00;0.00;;;;;;;-145.06;100.00;63404.56;10479363;28;20035;-87
2022/04/15 06:20:52;;;;;;;0.00;0.00;;;;;;;-145.06;100.00;63404.56;10493830;28;20043;-88
2022/04/15 06:25:52;;;;;;;0.00;0.00;;;;;;;-145.06;100.00;63404.56;10471582;28;20017;-88
2022/04/15 06:30:56;;;;;;;0.00;0.00;;;;;;;-145.06;100.00;63404.56;10472920;28;20035;-86
2022/04/15 06:35:59;;;;;;;0.00;0.00;;;;;;;-145.06;100.00;63404.56;10492400;28;20017;-88
2022/04/15 06:41:00;;;;;;;0.00;0.00;;;;;;;-145.06;100.00;63404.56;10490497;28;20017;-87
2022/04/15 06:46:03;;;;;;;0.10;0.10;;;;;;;-145.06;100.00;63404.56;10475561;28;20092;-87
2022/04/15 06:51:03;;;;;;;0.00;0.00;;;;;;;-145.06;100.00;63404.56;10481473;28;20116;-88
2022/04/15 06:56:04;;;;;;;0.00;0.00;;;;;;;-145.06;100.00;63404.56;10466677;28;20048;-88
2022/04/15 07:01:04;;;;;;;0.00;0.00;;;;;;;-145.06;100.00;63404.56;10488300;28;20021;-87
2022/04/15 07:06:04;;;;;;;0.10;0.10;;;;;;;-145.06;100.00;63404.56;10482715;28;20044;-86
2022/04/15 07:11:05;;;;;;;0.00;0.00;;;;;;;-145.06;100.00;63404.56;10468163;28;20286;-88
2022/04/15 07:16:05;;;;;;;0.00;0.00;;;;;;;-145.06;100.00;63404.56;10464948;28;20024;-87
2022/04/15 07:21:05;;;;;;;0.00;0.00;;;;;;;-145.06;100.00;63404.56;10469061;28;20115;-87
2022/04/15 07:26:06;;;;;;;0.00;0.00;;;;;;;-145.06;100.00;63404.56;10483667;28;20028;-87
2022/04/15 07:31:06;;;;;;;0.10;0.10;;;;;;;-145.06;100.00;63404.56;10483123;28;20095;-88
2022/04/15 07:36:31;;;;;;;0.00;0.00;;;;;;;-145.06;100.00;63404.56;10469483;28;20274;-87
2022/04/15 07:41:27;;;;;;;0.00;0.00;;;;;;;-145.06;100.00;63404.56;10476719;28;20024;-87
2022/04/15 07:46:27;;;;;;;0.00;0.00;;;;;;;-145.06;100.00;63404.56;10463465;28;20115;-87
2022/04/15 07:51:29;;;;;;;0.00;0.00;;;;;;;-145.06;100.00;63404.56;10472214;28;20045;-87
2022/04/15 07:56:30;;;;;;;0.00;0.00;;;;;;;-145.06;100.00;63404.56;10466509;28;20013;-86
2022/04/15 08:01:31;;;;;;;0.00;0.00;;;;;;;-145.06;100.00;63404.56;10461537;28;20021;-87
2022/04/15 08:06:33;;;;;;;0.00;0.00;;;;;;;-145.06;100.00;63404.56;10458285;28;20040;-86
2022/04/15 08:11:33;;;;;;;0.10;0.10;;;;;;;-145.06;100.00;63404.56;10475755;28;20021;-87
2022/04/15 08:16:33;;;;;;;0.00;0.00;;;;;;;-145.06;100.00;63404.56;10489406;28;20025;-88
2022/04/15 08:21:33;;;;;;;0.00;0.00;;;;;;;-145.06;100.00;63404.56;10468280;28;20023;-87
2022/04/15 08:26:34;;;;;;;0.10;0.10;;;;;;;-145.06;100.00;63404.56;10467266;28;20069;-85
2022/04/15 08:31:34;;;;;;;0.00;0.00;;;;;;;-145.06;100.00;63404.56;10464848;28;20017;-86
2022/04/15 08:36:34;;;;;;;0.00;0.00;;;;;;;-145.06;100.00;63404.56;10465522;28;20017;-85
2022/04/15 08:41:40;;;;;;;0.00;0.00;;;;;;;-145.06;100.00;63404.56;10482666;28;20048;-86
2022/04/15 08:46:41;;;;;;;0.00;0.00;;;;;;;-145.06;100.00;63404.56;10463905;28;20024;-85
2022/04/15 08:51:42;;;;;;;0.10;0.10;;;;;;;-145.06;100.00;63404.56;10491225;28;20116;-85
2022/04/15 08:56:43;;;;;;;0.00;0.00;;;;;;;-145.06;100.00;63404.56;10503222;28;20107;-85
2022/04/15 09:01:43;;;;;;;0.00;0.00;;;;;;;-145.06;100.00;63404.56;10486853;28;20033;-84
2022/04/15 09:06:44;;;;;;;0.00;0.00;;;;;;;-145.06;100.00;63404.56;10488198;28;20043;-85
2022/04/15 09:11:48;;;;;;;0.00;0.00;;;;;;;-145.06;100.00;63404.56;10504952;28;20476;-85
2022/04/15 09:16:49;;;;;;;0.10;0.10;;;;;;;-145.06;100.00;63404.56;10479772;28;20101;-91
2022/04/15 09:22:03;;;;;;;0.00;0.00;;;;;;;-145.06;100.00;63404.56;10449581;28;20017;-90
2022/04/15 09:27:04;;;;;;;0.10;0.10;;;;;;;-145.06;100.00;63404.56;10435729;28;20021;-89
2022/04/15 09:32:09;;;;;;;0.10;0.10;;;;;;;-145.06;100.00;63404.56;10452864;28;20029;-91
2022/04/15 09:37:10;;;;;;;0.00;0.00;;;;;;;-145.06;100.00;63404.56;10435585;28;20435;-91
2022/04/15 09:42:13;;;;;;;0.00;0.00;;;;;;;-145.06;100.00;63404.56;10436861;28;20033;-90
2022/04/15 09:47:16;;;;;;;0.00;0.00;;;;;;;-145.06;100.00;63404.56;10443881;28;20071;-90
2022/04/15 09:52:24;;;;;;;0.10;0.10;;;;;;;-145.06;100.00;63404.56;10474273;28;20032;-91
2022/04/15 09:57:33;;;;;;;0.00;0.00;;;;;;;-145.06;100.00;63404.56;10486849;28;20025;-89
2022/04/15 10:02:35;;;;;;;0.10;0.10;;;;;;;-145.06;100.00;63404.56;10483626;28;20107;-90
2022/04/15 10:07:38;;;;;;;0.10;0.10;;;;;;;-145.06;100.00;63404.56;10483608;28;20025;-89
2022/04/15 10:12:41;;;;;;;0.00;0.00;;;;;;;-145.06;100.00;63404.56;10483168;28;20043;-91
2022/04/15 10:17:42;;;;;;;0.00;0.00;;;;;;;-145.06;100.00;63404.56;10481924;28;20020;-90
2022/04/15 10:22:43;;;;;;;0.00;0.00;;;;;;;-145.06;100.00;63404.56;10467580;28;20021;-89
2022/04/15 10:27:44;;;;;;;0.00;0.00;;;;;;;-145.06;100.00;63404.56;10500988;28;20035;-90
2022/04/15 10:32:48;;;;;;;0.10;0.10;;;;;;;-145.06;100.00;63404.56;10482458;28;20499;-90
2022/04/15 10:37:55;;;;;;;0.00;0.00;;;;;;;-145.06;100.00;63404.56;10484458;28;20272;-89
2022/04/15 10:43:23;;;;;;;0.00;0.00;;;;;;;-145.06;100.00;63404.56;10483820;28;20118;-91
2022/04/15 10:48:32;;;;;;;0.10;0.10;;;;;;;-145.06;100.00;63404.56;10482214;28;20059;-91
2022/04/15 10:53:34;;;;;;;0.10;0.10;;;;;;;-145.06;100.00;63404.56;10443594;28;20024;-91
2022/04/15 11:04:26;;;;;;;0.10;0.10;;;;;;;-145.06;100.00;63404.56;10435061;28;20071;-89
2022/04/15 11:09:26;;;;;;;0.10;0.10;;;;;;;-145.06;100.00;63404.56;10439852;28;20052;-90
2022/04/15 11:14:35;;;;;;;0.10;0.10;;;;;;;-145.06;100.00;63404.56;10439720;28;20397;-91
2022/04/15 11:19:36;;;;;;;0.08;0.08;;;;;;;-145.06;100.00;63404.56;10465060;28;20020;-90
2022/04/15 11:24:38;;;;;;;0.10;0.10;;;;;;;-145.06;100.00;63404.56;10473856;28;20024;-90
2022/04/15 11:29:40;;;;;;;0.10;0.10;;;;;;;-145.06;100.00;63404.56;10481165;28;20073;-91
2022/04/15 11:34:42;;;;;;;0.10;0.10;;;;;;;-145.06;100.00;63404.56;10480297;28;20378;-89
2022/04/15 11:39:45;;;;;;;0.00;0.00;;;;;;;-145.06;100.00;63404.56;10498364;28;20086;-91
2022/04/15 11:44:45;;;;;;;0.00;0.00;;;;;;;-145.06;100.00;63404.56;10479934;28;20496;-90
2022/04/15 11:49:47;;;;;;;0.00;0.00;;;;;;;-145.06;100.00;63404.56;10469020;28;20111;-90
2022/04/15 11:54:48;;;;;;;0.00;0.00;;;;;;;-145.06;100.00;63404.56;10491799;28;20114;-91
2022/04/15 11:59:49;;;;;;;0.10;0.10;;;;;;;-145.06;100.00;63404.56;10496309;28;20056;-90
2022/04/15 12:04:53;;;;;;;0.10;0.10;;;;;;;-145.06;100.00;63404.56;10478567;28;20279;-90
2022/04/15 12:09:54;;;;;;;0.00;0.00;;;;;;;-145.06;100.00;63404.56;10534692;22;20036;-65
2022/04/15 12:14:54;;;;;;;0.00;0.00;;;;;;;-145.06;100.00;63404.56;10451853;28;20028;-66
2022/04/15 12:19:55;;;;;;;0.10;0.10;;;;;;;-145.06;100.00;63404.56;10452083;28;20099;-66
2022/04/15 12:25:16;;;;;;;0.10;0.10;;;;;;;-145.06;100.00;63404.56;10451906;28;20116;-66
2022/04/15 12:30:37;;;;;;;0.10;0.10;;;;;;;-145.06;100.00;63404.56;10447998;28;20025;-65
2022/04/15 12:35:56;;;;;;;0.10;0.10;;;;;;;-145.06;100.00;63404.56;10451388;28;20032;-66
2022/04/15 12:41:01;;;;;;;0.10;0.10;;;;;;;-145.06;100.00;63404.56;10451790;28;20199;-66
2022/04/15 12:46:01;;;;;;;0.05;0.05;;;;;;;-145.06;100.00;63404.56;10450947;28;20412;-65
2022/04/15 12:51:01;;;;;;;0.10;0.10;;;;;;;-145.06;100.00;63404.56;10459270;28;20056;-65
2022/04/15 12:56:12;;;;;;;0.10;0.10;;;;;;;-145.06;100.00;63404.56;10450194;28;20272;-66
2022/04/15 13:01:13;;;;;;;0.10;0.10;;;;;;;-145.06;100.00;63404.56;10451154;28;20013;-66
2022/04/15 13:06:13;;;;;;;0.07;0.07;;;;;;;-145.06;100.00;63404.56;10450792;28;20419;-65
2022/04/15 13:11:13;;;;;;;0.00;0.00;;;;;;;-145.06;100.00;63404.56;10450497;28;20031;-66
2022/04/15 13:16:14;;;;;;;0.00;0.00;;;;;;;-145.06;100.00;63404.56;10450581;28;20205;-66
2022/04/15 13:21:14;;;;;;;0.10;0.10;;;;;;;-145.06;100.00;63404.56;10459078;28;20025;-66
2022/04/15 13:26:15;;;;;;;0.10;0.10;;;;;;;-145.06;100.00;63404.56;10459070;28;20021;-65
2022/04/15 13:31:15;;;;;;;0.08;0.08;;;;;;;-145.06;100.00;63404.56;10458340;28;20127;-66
2022/04/15 13:36:15;;;;;;;0.10;0.10;;;;;;;-145.06;100.00;63404.56;10458340;28;20025;-66
2022/04/15 13:41:16;;;;;;;0.07;0.07;;;;;;;-145.06;100.00;63404.56;10457274;28;20488;-66
2022/04/15 13:46:16;;;;;;;0.10;0.10;;;;;;;-145.06;100.00;63404.56;10458401;28;20033;-65
2022/04/15 13:51:17;;;;;;;0.10;0.10;;;;;;;-145.06;100.00;63404.56;10457869;28;20104;-65
2022/04/15 14:01:39;;;;;;;0.00;0.00;;;;;;;-145.06;100.00;63404.56;10457570;28;20029;-65
2022/04/15 14:06:45;;;;;;;0.10;0.10;;;;;;;-145.06;100.00;63404.56;10450095;28;20602;-66
2022/04/15 14:11:47;;;;;;;0.10;0.10;;;;;;;-145.06;100.00;63404.56;10424763;28;20302;-66
2022/04/15 14:16:48;;;;;;;0.00;0.00;;;;;;;-145.06;100.00;63404.56;10458649;28;20132;-66
2022/04/15 14:21:48;;;;;;;0.00;0.00;;;;;;;-145.06;100.00;63404.56;10457678;28;20029;-65
2022/04/15 14:26:48;;;;;;;0.03;0.03;;;;;;;-145.06;100.00;63404.56;10457772;28;20033;-66
2022/04/15 14:31:50;;;;;;;0.00;0.00;;;;;;;-145.06;100.00;63404.56;10457244;28;20033;-65
2022/04/15 14:36:50;;;;;;;0.10;0.10;;;;;;;-145.06;100.00;63404.56;10456565;28;20021;-66
2022/04/15 14:41:52;;;;;;;0.10;0.10;;;;;;;-145.06;100.00;63404.56;10451641;28;20101;-66
2022/04/15 14:46:52;;;;;;;0.10;0.10;;;;;;;-145.06;100.00;63404.56;10439791;28;20040;-65
2022/04/15 14:51:52;;;;;;;0.00;0.00;;;;;;;-145.06;100.00;63404.56;10424723;28;20030;-66
2022/04/15 14:56:54;;;;;;;0.10;0.10;;;;;;;-145.06;100.00;63404.56;10414194;28;20025;-65
2022/04/15 15:01:55;;;;;;;0.10;0.10;;;;;;;-145.06;100.00;63404.56;10396233;28;20454;-66
2022/04/15 15:06:55;;;;;;;0.00;0.00;;;;;;;-145.06;100.00;63404.56;10413279;28;20109;-65
2022/04/15 15:11:56;;;;;;;0.00;0.00;;;;;;;-145.06;100.00;63404.56;10467953;28;20032;-66
2022/04/15 15:16:57;;;;;;;0.00;0.00;;;;;;;-145.06;100.00;63404.56;10467649;28;20656;-66
2022/04/15 15:21:57;;;;;;;0.10;0.10;;;;;;;-145.06;100.00;63404.56;10420785;28;20025;-65
2022/04/15 15:32:21;;;;;;;0.10;0.10;;;;;;;-145.06;100.00;63404.56;10408070;28;20033;-66
2022/04/15 15:37:21;;;;;;;0.10;0.10;;;;;;;-145.06;100.00;63404.56;10433499;28;20037;-66
2022/04/15 15:42:22;;;;;;;0.10;0.10;;;;;;;-145.06;100.00;63404.56;10441325;28;20029;-66
2022/04/15 15:47:22;;;;;;;0.00;0.00;;;;;;;-145.06;100.00;63404.56;10433408;28;20305;-66
2022/04/15 15:52:22;;;;;;;0.10;0.10;;;;;;;-145.06;100.00;63404.56;10435302;28;20036;-66
2022/04/15 15:57:23;;;;;;;0.00;0.00;;;;;;;-145.06;100.00;63404.56;10430560;28;20270;-66
2022/04/15 16:02:23;;;;;;;0.00;0.00;;;;;;;-145.06;100.00;63404.56;10432974;28;20029;-66
2022/04/15 16:07:23;;;;;;;0.03;0.03;;;;;;;-145.06;100.00;63404.56;10441476;28;20658;-66
2022/04/15 16:12:24;;;;;;;0.00;0.00;;;;;;;-145.06;100.00;63404.56;10428902;28;20264;-65
2022/04/15 16:17:26;;;;;;;0.10;0.10;;;;;;;-145.06;100.00;63404.56;10436729;28;20107;-66
2022/04/15 16:22:27;;;;;;;0.10;0.10;;;;;;;-145.06;100.00;63404.56;10426921;28;20029;-66
2022/04/15 16:27:27;;;;;;;0.10;0.10;;;;;;;-145.06;100.00;63404.56;10426457;28;20040;-65
2022/04/15 16:32:28;;;;;;;0.10;0.10;;;;;;;-145.06;100.00;63404.56;10413589;28;20052;-66
2022/04/15 16:37:28;;;;;;;0.00;0.00;;;;;;;-145.06;100.00;63404.56;10444571;28;20020;-65
2022/04/15 16:42:29;;;;;;;0.08;0.08;;;;;;;-145.06;100.00;63404.56;10471945;28;20296;-66
2022/04/15 16:47:29;;;;;;;0.00;0.00;;;;;;;-145.06;100.00;63404.56;10439556;28;20033;-66
2022/04/15 16:52:29;;;;;;;0.00;0.00;;;;;;;-145.06;100.00;63404.56;10435707;28;20021;-66
2022/04/15 17:02:48;;;;;;;0.10;0.10;;;;;;;-145.06;100.00;63404.56;10428651;28;20483;-66
2022/04/15 17:07:49;;;;;;;0.00;0.00;;;;;;;-145.06;100.00;63404.56;10443969;28;20013;-66
2022/04/15 17:12:49;;;;;;;0.00;0.00;;;;;;;-145.06;100.00;63404.56;10425194;28;20025;-66
2022/04/15 17:17:49;;;;;;;0.10;0.10;;;;;;;-145.06;100.00;63404.56;10436024;28;20039;-65
2022/04/15 17:22:50;;;;;;;0.05;0.05;;;;;;;-145.06;100.00;63404.56;10433423;28;20029;-66
2022/04/15 17:27:51;;;;;;;0.00;0.00;;;;;;;-145.06;100.00;63404.56;10438619;28;20025;-65
2022/04/15 17:32:51;;;;;;;0.00;0.00;;;;;;;-145.06;100.00;63404.56;10441337;28;20056;-65
2022/04/15 17:37:51;;;;;;;0.10;0.10;;;;;;;-145.06;100.00;63404.56;10416706;28;20026;-65
2022/04/15 17:42:52;;;;;;;0.00;0.00;;;;;;;-145.06;100.00;63404.56;10420007;28;20112;-65
2022/04/15 17:47:52;;;;;;;0.00;0.00;;;;;;;-145.06;100.00;63404.56;10432812;28;20025;-66
2022/04/15 17:52:53;;;;;;;0.00;0.00;;;;;;;-145.06;100.00;63404.56;10421938;28;20033;-65
2022/04/15 17:57:53;;;;;;;0.03;0.03;;;;;;;-145.06;100.00;63404.56;10426905;28;20025;-66
2022/04/15 18:02:54;;;;;;;0.00;0.00;;;;;;;-145.06;100.00;63404.56;10423250;28;20131;-66
2022/04/15 18:07:57;;;;;;;0.00;0.00;;;;;;;-145.06;100.00;63404.56;10440197;28;20030;-65
2022/04/15 18:12:57;;;;;;;0.00;0.00;;;;;;;-145.06;100.00;63404.56;10519613;22;20033;-69
2022/04/15 18:17:57;;;;;;;0.00;0.00;;;;;;;-145.06;100.00;63404.56;10394323;28;20017;-68
2022/04/15 18:22:58;;;;;;;0.00;0.00;;;;;;;-145.06;100.00;63404.56;10370868;28;20147;-68
2022/04/15 18:27:58;;;;;;;0.00;0.00;;;;;;;-145.06;100.00;63404.56;10365886;28;20026;-68
2022/04/15 18:32:59;;;;;;;0.00;0.00;;;;;;;-145.06;100.00;63404.56;10368860;28;20424;-68
2022/04/15 18:38:04;;;;;;;0.00;0.00;;;;;;;-145.06;100.00;63404.56;10369185;28;20821;-68
2022/04/15 18:43:06;;;;;;;0.00;0.00;;;;;;;-145.06;100.00;63404.56;10385988;28;20026;-68
2022/04/15 18:53:29;;;;;;;0.00;0.00;;;;;;;-145.06;100.00;63404.56;10372389;28;20072;-68
2022/04/15 18:58:29;;;;;;;0.00;0.00;;;;;;;-145.06;100.00;63404.56;10363725;28;20096;-68
2022/04/15 19:03:29;;;;;;;0.00;0.00;;;;;;;-145.06;100.00;63404.56;10375318;28;20556;-68
2022/04/15 19:08:30;;;;;;;0.00;0.00;;;;;;;-145.06;100.00;63404.56;10371096;28;20280;-68
2022/04/15 19:13:31;;;;;;;0.00;0.00;;;;;;;-145.06;100.00;63404.56;10394949;28;20276;-68
2022/04/15 19:18:32;;;;;;;0.00;0.00;;;;;;;-145.06;100.00;63404.56;10399731;28;20472;-68
2022/04/15 19:23:32;;;;;;;0.00;0.00;;;;;;;-145.06;100.00;63404.56;10366776;28;20022;-68
2022/04/15 19:28:35;;;;;;;0.00;0.00;;;;;;;-145.06;100.00;63404.56;10378664;28;20021;-68
2022/04/15 19:33:35;;;;;;;0.00;0.00;;;;;;;-145.06;100.00;63404.56;10396458;28;20072;-68
2022/04/15 19:38:35;;;;;;;0.00;0.00;;;;;;;-145.06;100.00;63404.56;10367051;28;20064;-68
2022/04/15 19:43:36;;;;;;;0.00;0.00;;;;;;;-145.06;100.00;63404.56;10363063;28;20577;-68
2022/04/15 19:48:37;;;;;;;0.00;0.00;;;;;;;-145.06;100.00;63404.56;10376735;28;20061;-68
2022/04/15 19:53:37;;;;;;;0.00;0.00;;;;;;;-145.06;100.00;63404.56;10393649;28;20268;-68
2022/04/15 20:03:56;;;;;;;0.00;0.00;;;;;;;-145.06;100.00;63404.56;10377653;28;20376;-68
2022/04/15 20:08:59;;;;;;;0.00;0.00;;;;;;;-145.06;100.00;63404.56;10381970;28;20045;-69
2022/04/15 20:13:59;;;;;;;0.00;0.00;;;;;;;-145.06;100.00;63404.56;10386143;28;20276;-69
2022/04/15 20:19:00;;;;;;;0.00;0.00;;;;;;;-145.06;100.00;63404.56;10366556;28;20029;-68
2022/04/15 20:24:01;;;;;;;0.00;0.00;;;;;;;-145.06;100.00;63404.56;10385810;28;20067;-68
2022/04/15 20:29:01;;;;;;;0.10;0.10;;;;;;;-145.06;100.00;63404.56;10405914;28;20021;-69
2022/04/15 20:34:01;;;;;;;0.00;0.00;;;;;;;-145.06;100.00;63404.56;10390546;28;20041;-68
2022/04/15 20:39:02;;;;;;;0.00;0.00;;;;;;;-145.06;100.00;63404.56;10399040;28;20030;-69
2022/04/15 20:44:03;;;;;;;0.00;0.00;;;;;;;-145.06;100.00;63404.56;10405741;28;20026;-69
2022/04/15 20:54:22;;;;;;;0.00;0.00;;;;;;;-145.06;100.00;63404.56;10372422;28;20043;-68
2022/04/15 20:59:23;;;;;;;0.00;0.00;;;;;;;-145.06;100.00;63404.56;10390160;28;20018;-69
2022/04/15 21:04:23;;;;;;;0.00;0.00;;;;;;;-145.06;100.00;63404.56;10363156;28;20033;-67
2022/04/15 21:09:23;;;;;;;0.00;0.00;;;;;;;-145.06;100.00;63404.56;10364574;28;20034;-66
2022/04/15 21:14:26;;;;;;;0.00;0.00;;;;;;;-145.06;100.00;63404.56;10369034;28;20041;-67
2022/04/15 21:19:26;;;;;;;0.00;0.00;;;;;;;-145.06;100.00;63404.56;10364010;28;20318;-67
2022/04/15 21:24:28;;;;;;;0.00;0.00;;;;;;;-145.06;100.00;63404.56;10387594;28;20087;-67
2022/04/15 21:29:28;;;;;;;0.00;0.00;;;;;;;-145.06;100.00;63404.56;10353648;28;20096;-68
2022/04/15 21:34:29;;;;;;;0.00;0.00;;;;;;;-145.06;100.00;63404.56;10380823;28;20104;-68
2022/04/15 21:39:29;;;;;;;0.00;0.00;;;;;;;-145.06;100.00;63404.56;10390425;28;20026;-68
2022/04/15 21:44:29;;;;;;;0.00;0.00;;;;;;;-145.06;100.00;63404.56;10389055;28;20111;-68
2022/04/15 21:49:29;;;;;;;0.00;0.00;;;;;;;-145.06;100.00;63404.56;10394361;28;20087;-68
2022/04/15 21:54:31;;;;;;;0.00;0.00;;;;;;;-145.06;100.00;63404.56;10385381;28;20026;-68
2022/04/15 21:59:34;;;;;;;0.00;0.00;;;;;;;-145.06;100.00;63404.56;10393965;28;20150;-68
2022/04/15 22:04:37;;;;;;;0.00;0.00;;;;;;;-145.06;100.00;63404.56;10381329;28;20028;-68
2022/04/15 22:09:42;;;;;;;0.03;0.03;;;;;;;-145.06;100.00;63404.56;10400844;28;20420;-68
2022/04/15 22:14:45;;;;;;;0.00;0.00;;;;;;;-145.06;100.00;63404.56;10379413;28;20365;-68
2022/04/15 22:19:52;;;;;;;0.00;0.00;;;;;;;-145.06;100.00;63404.56;10391454;28;20034;-68
2022/04/15 22:24:53;;;;;;;0.00;0.00;;;;;;;-145.06;100.00;63404.56;10384308;28;20163;-68
2022/04/15 22:29:53;;;;;;;0.00;0.00;;;;;;;-145.06;100.00;63404.56;10382328;28;20569;-68
2022/04/15 22:34:53;;;;;;;0.00;0.00;;;;;;;-145.06;100.00;63404.56;10397107;28;20020;-68
2022/04/15 22:39:54;;;;;;;0.00;0.00;;;;;;;-145.06;100.00;63404.56;10397543;28;20021;-68
2022/04/15 22:44:54;;;;;;;0.00;0.00;;;;;;;-145.06;100.00;63404.56;10360229;28;20279;-68
2022/04/15 22:49:54;;;;;;;0.00;0.00;;;;;;;-145.06;100.00;63404.56;10391612;28;20025;-68
2022/04/15 23:00:17;;;;;;;0.00;0.00;;;;;;;-145.06;100.00;63404.56;10376145;28;20483;-68
2022/04/15 23:05:17;;;;;;;0.00;0.00;;;;;;;-145.06;100.00;63404.56;10396877;28;20018;-67
2022/04/15 23:10:18;;;;;;;0.00;0.00;;;;;;;-145.06;100.00;63404.56;10400615;28;20025;-68
2022/04/15 23:15:18;;;;;;;0.00;0.00;;;;;;;-145.06;100.00;63404.56;10388181;28;20029;-68
2022/04/15 23:20:19;;;;;;;0.00;0.00;;;;;;;-145.06;100.00;63404.56;10383028;28;20018;-68